Terminal Aerodrome Forecast
Issued by NWS

Home | Current Version | Previous Version | Graphics & Text | Print | Product List | Glossary On
Versions: 1 2 3 4 5 6 7 8 9 10 11 12 13 14 15 16
654
FTUS42 KMHX 201121
TAFPGV
TAF
KPGV 201121Z 2012/2112 25006KT P6SM SKC
     FM201700 22005KT P6SM VCTS OVC040CB
     FM210300 05007KT P6SM SCT007 BKN015
      AMD LTD TO CLD VIS AND WIND=

USA.gov is the U.S. government's official web portal to all federal, state and local government web resources and services.